Rick Pumphrey — WDF8497 — position and weather

sailwx.info

Track history (hours):
 
Tides and Currents Weather Stations Pressure Air Temp Water Temp Dewpoint Dewpoint Depression Visibility Wind Speed Wind Dir Waves Ship Positions

Rick Pumphrey

Owner: Blessey Enterprises, Inc., Harahan, LA. More information available from US FCC via Universal Licensing System and Coast Guard Vessel Documentation Center.

Last reported at 2017-Sep-26 05:54 UTC. Time now 2017-Sep-26 16:37 UTC.
Position N 29°44' W 095°03'.

; draft 2.4 m.

Type: Tug. MMSI: 367495480.

Date/timePositionNaut miles runAvg speedWind from/ knotsBaromVisibWave heightAir tempDewpointWater temp
2017-Sep-26 05:54N 29°44' W 095°03'3 6.9
2017-Sep-26 05:31N 29°42' W 095°01'4 7.3
2017-Sep-26 04:59N 29°39' W 094°58'4 7.9
2017-Sep-26 04:30N 29°36' W 094°56'7 0.3
2017-Sep-25 03:40N 29°30' W 094°52'1 7.1
2017-Sep-25 03:28N 29°31' W 094°53'3 7.0
2017-Sep-25 02:59N 29°34' W 094°55'3 7.2
2017-Sep-25 02:30N 29°36' W 094°57'4 7.4
2017-Sep-25 02:00N 29°40' W 094°59'3 6.9
2017-Sep-25 01:30N 29°42' W 095°01'6 0.9
2017-Sep-24 19:13N 29°47' W 095°05'0 0.1
2017-Sep-24 18:56N 29°47' W 095°05'0 0.0
2017-Sep-24 18:16N 29°47' W 095°05'0 0.1
2017-Sep-24 17:53N 29°47' W 095°05'  
2017-Sep-22 02:00N 29°37' W 095°01'0 0.0
2017-Sep-22 01:30N 29°37' W 095°01'0 0.0
2017-Sep-22 01:00N 29°37' W 095°01'0 0.0
2017-Sep-22 00:30N 29°37' W 095°01'0 0.0
2017-Sep-22 00:00N 29°37' W 095°01'0 0.0
2017-Sep-21 23:30N 29°37' W 095°01'0 0.0
2017-Sep-21 23:00N 29°37' W 095°01'0 0.0
2017-Sep-21 22:30N 29°37' W 095°01'0 0.0
2017-Sep-21 22:00N 29°37' W 095°01'0 0.0
2017-Sep-21 21:30N 29°37' W 095°01'0 0.0
2017-Sep-21 21:00N 29°37' W 095°01'0 0.0
2017-Sep-21 20:30N 29°37' W 095°01'0 0.0
2017-Sep-21 20:00N 29°37' W 095°01'0 0.0
2017-Sep-21 19:30N 29°37' W 095°01'0 0.0
2017-Sep-21 19:00N 29°37' W 095°01'0 0.0
2017-Sep-21 18:30N 29°37' W 095°01'0 0.0
2017-Sep-21 18:00N 29°37' W 095°01'0 0.0
2017-Sep-21 17:30N 29°37' W 095°01'0 0.0
2017-Sep-21 17:00N 29°37' W 095°01'0 0.0
2017-Sep-21 16:30N 29°37' W 095°01'0 0.0
2017-Sep-21 16:00N 29°37' W 095°01'0 0.0
2017-Sep-21 15:30N 29°37' W 095°01'0 0.0
2017-Sep-21 15:00N 29°37' W 095°01'0 0.0
2017-Sep-21 14:30N 29°37' W 095°01'0 0.0
2017-Sep-21 14:00N 29°37' W 095°01'0 0.5
2017-Sep-21 13:31N 29°37' W 095°01'3 6.2
2017-Sep-21 13:00N 29°37' W 094°58'3 6.4
2017-Sep-21 12:30N 29°40' W 094°59'3 6.8
2017-Sep-21 12:00N 29°43' W 095°01'2 0.2
2017-Sep-21 02:10N 29°44' W 095°03'0 1.0
2017-Sep-21 01:56N 29°44' W 095°03'0 0.1
2017-Sep-21 01:22N 29°44' W 095°03'0 0.2
2017-Sep-21 01:00N 29°44' W 095°03'0 0.4
2017-Sep-21 00:30N 29°44' W 095°03'0 0.0
2017-Sep-20 10:51N 29°44' W 095°04'3 6.4
2017-Sep-20 10:27N 29°43' W 095°01'1 2.8
2017-Sep-20 10:00N 29°42' W 095°02'0 0.0
2017-Sep-20 09:28N 29°42' W 095°02'0 0.0
2017-Sep-20 08:58N 29°42' W 095°02'0 0.0
2017-Sep-20 08:26N 29°42' W 095°02'0 0.0
2017-Sep-20 08:00N 29°42' W 095°02'0 0.0
2017-Sep-20 07:25N 29°42' W 095°02'0 0.0
2017-Sep-20 07:00N 29°42' W 095°02'0 0.0
2017-Sep-20 06:30N 29°42' W 095°02'0 0.0
2017-Sep-20 05:49N 29°42' W 095°02'0 0.0
2017-Sep-20 05:25N 29°42' W 095°02'0 0.0
2017-Sep-20 05:00N 29°42' W 095°02'0 0.0
2017-Sep-20 04:24N 29°42' W 095°02'0 0.0
2017-Sep-20 03:58N 29°42' W 095°02'0 0.0
2017-Sep-20 02:49N 29°42' W 095°02'0 0.0
2017-Sep-20 00:10N 29°42' W 095°02'1 5.3
2017-Sep-19 23:58N 29°42' W 095°01'3 5.5
2017-Sep-19 23:30N 29°44' W 095°03'3 1.8
2017-Sep-19 21:39N 29°47' W 095°04'0 0.1
2017-Sep-19 19:43N 29°47' W 095°05'0 0.0
2017-Sep-19 06:33N 29°47' W 095°05'0 0.1
2017-Sep-19 06:29N 29°47' W 095°05'0 0.0
2017-Sep-18 15:22N 29°47' W 095°05'0 0.1
2017-Sep-18 15:00N 29°47' W 095°05'0 0.0
2017-Sep-18 14:30N 29°47' W 095°05'0 0.0
2017-Sep-18 14:00N 29°47' W 095°05'0 0.0
2017-Sep-18 13:30N 29°47' W 095°05'0 0.0
2017-Sep-18 13:00N 29°47' W 095°05'0 0.0
2017-Sep-18 12:30N 29°47' W 095°05'0 0.0
2017-Sep-18 12:00N 29°47' W 095°05'0 0.0
2017-Sep-18 11:29N 29°47' W 095°05'0 0.0
2017-Sep-18 11:00N 29°47' W 095°05'0 0.0
2017-Sep-18 10:30N 29°47' W 095°05'0 0.0
2017-Sep-18 10:00N 29°47' W 095°05'0 0.0
2017-Sep-17 15:45N 29°47' W 095°05'5 4.8
2017-Sep-17 14:38N 29°43' W 095°01'1 5.6
2017-Sep-17 14:30N 29°42' W 095°01'1 0.3
2017-Sep-17 11:47N 29°42' W 095°02'0 0.0
2017-Sep-17 10:41N 29°42' W 095°02'0 0.0
2017-Sep-17 10:23N 29°42' W 095°02'0 0.0
2017-Sep-17 10:00N 29°42' W 095°02'0 0.0
2017-Sep-17 09:26N 29°42' W 095°02'0 0.0
2017-Sep-17 09:00N 29°42' W 095°02'0 0.0
2017-Sep-17 08:30N 29°42' W 095°02'0 0.0
2017-Sep-17 07:59N 29°42' W 095°02'0 0.0
2017-Sep-17 07:30N 29°42' W 095°02'0 0.0
2017-Sep-17 07:00N 29°42' W 095°02'0 0.0
2017-Sep-17 06:29N 29°42' W 095°02'0 0.0
2017-Sep-17 06:00N 29°42' W 095°02'0 0.0
2017-Sep-17 05:30N 29°42' W 095°02'0 0.0
2017-Sep-17 04:58N 29°42' W 095°02'0 0.0
2017-Sep-17 04:30N 29°42' W 095°02'1 0.8
2017-Sep-17 03:46N 29°42' W 095°02'1 3.8
2017-Sep-17 03:28N 29°42' W 095°00'2 4.9
2017-Sep-17 03:00N 29°41' W 094°59'3 6.0
2017-Sep-17 02:30N 29°38' W 094°58'2 4.6
2017-Sep-17 02:00N 29°37' W 095°00'1 2.6
2017-Sep-17 01:30N 29°37' W 095°01'0 0.0
2017-Sep-17 01:00N 29°37' W 095°01'0 0.0
2017-Sep-17 00:30N 29°37' W 095°01'0 0.0
2017-Sep-17 00:00N 29°37' W 095°01'0 0.0
2017-Sep-16 23:30N 29°37' W 095°01'0 0.0
2017-Sep-16 23:00N 29°37' W 095°01'0 0.0
2017-Sep-16 22:30N 29°37' W 095°01'0 0.0
2017-Sep-16 22:00N 29°37' W 095°01'0 0.0
2017-Sep-16 21:30N 29°37' W 095°01'0 0.0
2017-Sep-16 21:00N 29°37' W 095°01'0 0.0
2017-Sep-16 20:30N 29°37' W 095°01'0 0.0
2017-Sep-16 20:00N 29°37' W 095°01'0 0.0
2017-Sep-16 19:30N 29°37' W 095°01'0 0.0
2017-Sep-16 19:00N 29°37' W 095°01'0 0.0
2017-Sep-16 18:30N 29°37' W 095°01'0 0.0
2017-Sep-16 18:00N 29°37' W 095°01'0 0.0
2017-Sep-16 17:30N 29°37' W 095°01'0 0.0
2017-Sep-16 17:00N 29°37' W 095°01'0 0.0
2017-Sep-16 16:30N 29°37' W 095°01'0 0.0
2017-Sep-16 16:00N 29°37' W 095°01'0 0.0
2017-Sep-16 15:30N 29°37' W 095°01'0 0.0
2017-Sep-16 15:00N 29°37' W 095°01'0 0.0
2017-Sep-16 14:30N 29°37' W 095°01'0 0.0
2017-Sep-16 14:00N 29°37' W 095°01'0 0.0
2017-Sep-16 13:30N 29°37' W 095°01'0 0.0
2017-Sep-16 13:00N 29°37' W 095°01'0 0.0
2017-Sep-16 12:30N 29°37' W 095°01'0 0.0
2017-Sep-16 12:00N 29°37' W 095°01'0 0.0
2017-Sep-16 11:30N 29°37' W 095°01'1 1.0
2017-Sep-16 11:00N 29°37' W 095°01'3 5.5
2017-Sep-16 10:30N 29°37' W 094°58'3 6.9
2017-Sep-16 10:00N 29°40' W 094°59'3 6.5
2017-Sep-16 09:30N 29°43' W 095°01'3 6.4
2017-Sep-16 08:59N 29°45' W 095°04'  
Track history (hours):
 
Tides and Currents Weather Stations Pressure Air Temp Water Temp Dewpoint Dewpoint Depression Visibility Wind Speed Wind Dir Waves Ship Positions

Rick Pumphrey

Owner: Blessey Enterprises, Inc., Harahan, LA. More information available from US FCC via Universal Licensing System and Coast Guard Vessel Documentation Center.

Last reported at 2017-Sep-26 05:54 UTC. Time now 2017-Sep-26 16:37 UTC.
Position N 29°44' W 095°03'.

; draft 2.4 m.

Type: Tug. MMSI: 367495480.

Date/timePositionNaut miles runAvg speedWind from/ knotsBaromVisibWave heightAir tempDewpointWater temp
2017-Sep-26 05:54N 29°44' W 095°03'3 6.9
2017-Sep-26 05:31N 29°42' W 095°01'4 7.3
2017-Sep-26 04:59N 29°39' W 094°58'4 7.9
2017-Sep-26 04:30N 29°36' W 094°56'7 0.3
2017-Sep-25 03:40N 29°30' W 094°52'1 7.1
2017-Sep-25 03:28N 29°31' W 094°53'3 7.0
2017-Sep-25 02:59N 29°34' W 094°55'3 7.2
2017-Sep-25 02:30N 29°36' W 094°57'4 7.4
2017-Sep-25 02:00N 29°40' W 094°59'3 6.9
2017-Sep-25 01:30N 29°42' W 095°01'6 0.9
2017-Sep-24 19:13N 29°47' W 095°05'0 0.1
2017-Sep-24 18:56N 29°47' W 095°05'0 0.0
2017-Sep-24 18:16N 29°47' W 095°05'0 0.1
2017-Sep-24 17:53N 29°47' W 095°05'  
2017-Sep-22 02:00N 29°37' W 095°01'0 0.0
2017-Sep-22 01:30N 29°37' W 095°01'0 0.0
2017-Sep-22 01:00N 29°37' W 095°01'0 0.0
2017-Sep-22 00:30N 29°37' W 095°01'0 0.0
2017-Sep-22 00:00N 29°37' W 095°01'0 0.0
2017-Sep-21 23:30N 29°37' W 095°01'0 0.0
2017-Sep-21 23:00N 29°37' W 095°01'0 0.0
2017-Sep-21 22:30N 29°37' W 095°01'0 0.0
2017-Sep-21 22:00N 29°37' W 095°01'0 0.0
2017-Sep-21 21:30N 29°37' W 095°01'0 0.0
2017-Sep-21 21:00N 29°37' W 095°01'0 0.0
2017-Sep-21 20:30N 29°37' W 095°01'0 0.0
2017-Sep-21 20:00N 29°37' W 095°01'0 0.0
2017-Sep-21 19:30N 29°37' W 095°01'0 0.0
2017-Sep-21 19:00N 29°37' W 095°01'0 0.0
2017-Sep-21 18:30N 29°37' W 095°01'0 0.0
2017-Sep-21 18:00N 29°37' W 095°01'0 0.0
2017-Sep-21 17:30N 29°37' W 095°01'0 0.0
2017-Sep-21 17:00N 29°37' W 095°01'0 0.0
2017-Sep-21 16:30N 29°37' W 095°01'0 0.0
2017-Sep-21 16:00N 29°37' W 095°01'0 0.0
2017-Sep-21 15:30N 29°37' W 095°01'0 0.0
2017-Sep-21 15:00N 29°37' W 095°01'0 0.0
2017-Sep-21 14:30N 29°37' W 095°01'0 0.0
2017-Sep-21 14:00N 29°37' W 095°01'0 0.5
2017-Sep-21 13:31N 29°37' W 095°01'3 6.2
2017-Sep-21 13:00N 29°37' W 094°58'3 6.4
2017-Sep-21 12:30N 29°40' W 094°59'3 6.8
2017-Sep-21 12:00N 29°43' W 095°01'2 0.2
2017-Sep-21 02:10N 29°44' W 095°03'0 1.0
2017-Sep-21 01:56N 29°44' W 095°03'0 0.1
2017-Sep-21 01:22N 29°44' W 095°03'0 0.2
2017-Sep-21 01:00N 29°44' W 095°03'0 0.4
2017-Sep-21 00:30N 29°44' W 095°03'0 0.0
2017-Sep-20 10:51N 29°44' W 095°04'3 6.4
2017-Sep-20 10:27N 29°43' W 095°01'1 2.8
2017-Sep-20 10:00N 29°42' W 095°02'0 0.0
2017-Sep-20 09:28N 29°42' W 095°02'0 0.0
2017-Sep-20 08:58N 29°42' W 095°02'0 0.0
2017-Sep-20 08:26N 29°42' W 095°02'0 0.0
2017-Sep-20 08:00N 29°42' W 095°02'0 0.0
2017-Sep-20 07:25N 29°42' W 095°02'0 0.0
2017-Sep-20 07:00N 29°42' W 095°02'0 0.0
2017-Sep-20 06:30N 29°42' W 095°02'0 0.0
2017-Sep-20 05:49N 29°42' W 095°02'0 0.0
2017-Sep-20 05:25N 29°42' W 095°02'0 0.0
2017-Sep-20 05:00N 29°42' W 095°02'0 0.0
2017-Sep-20 04:24N 29°42' W 095°02'0 0.0
2017-Sep-20 03:58N 29°42' W 095°02'0 0.0
2017-Sep-20 02:49N 29°42' W 095°02'0 0.0
2017-Sep-20 00:10N 29°42' W 095°02'1 5.3
2017-Sep-19 23:58N 29°42' W 095°01'3 5.5
2017-Sep-19 23:30N 29°44' W 095°03'3 1.8
2017-Sep-19 21:39N 29°47' W 095°04'0 0.1
2017-Sep-19 19:43N 29°47' W 095°05'0 0.0
2017-Sep-19 06:33N 29°47' W 095°05'0 0.1
2017-Sep-19 06:29N 29°47' W 095°05'0 0.0
2017-Sep-18 15:22N 29°47' W 095°05'0 0.1
2017-Sep-18 15:00N 29°47' W 095°05'0 0.0
2017-Sep-18 14:30N 29°47' W 095°05'0 0.0
2017-Sep-18 14:00N 29°47' W 095°05'0 0.0
2017-Sep-18 13:30N 29°47' W 095°05'0 0.0
2017-Sep-18 13:00N 29°47' W 095°05'0 0.0
2017-Sep-18 12:30N 29°47' W 095°05'0 0.0
2017-Sep-18 12:00N 29°47' W 095°05'0 0.0
2017-Sep-18 11:29N 29°47' W 095°05'0 0.0
2017-Sep-18 11:00N 29°47' W 095°05'0 0.0
2017-Sep-18 10:30N 29°47' W 095°05'0 0.0
2017-Sep-18 10:00N 29°47' W 095°05'0 0.0
2017-Sep-17 15:45N 29°47' W 095°05'5 4.8
2017-Sep-17 14:38N 29°43' W 095°01'1 5.6
2017-Sep-17 14:30N 29°42' W 095°01'1 0.3
2017-Sep-17 11:47N 29°42' W 095°02'0 0.0
2017-Sep-17 10:41N 29°42' W 095°02'0 0.0
2017-Sep-17 10:23N 29°42' W 095°02'0 0.0
2017-Sep-17 10:00N 29°42' W 095°02'0 0.0
2017-Sep-17 09:26N 29°42' W 095°02'0 0.0
2017-Sep-17 09:00N 29°42' W 095°02'0 0.0
2017-Sep-17 08:30N 29°42' W 095°02'0 0.0
2017-Sep-17 07:59N 29°42' W 095°02'0 0.0
2017-Sep-17 07:30N 29°42' W 095°02'0 0.0
2017-Sep-17 07:00N 29°42' W 095°02'0 0.0
2017-Sep-17 06:29N 29°42' W 095°02'0 0.0
2017-Sep-17 06:00N 29°42' W 095°02'0 0.0
2017-Sep-17 05:30N 29°42' W 095°02'0 0.0
2017-Sep-17 04:58N 29°42' W 095°02'0 0.0
2017-Sep-17 04:30N 29°42' W 095°02'1 0.8
2017-Sep-17 03:46N 29°42' W 095°02'1 3.8
2017-Sep-17 03:28N 29°42' W 095°00'2 4.9
2017-Sep-17 03:00N 29°41' W 094°59'3 6.0
2017-Sep-17 02:30N 29°38' W 094°58'2 4.6
2017-Sep-17 02:00N 29°37' W 095°00'1 2.6
2017-Sep-17 01:30N 29°37' W 095°01'0 0.0
2017-Sep-17 01:00N 29°37' W 095°01'0 0.0
2017-Sep-17 00:30N 29°37' W 095°01'0 0.0
2017-Sep-17 00:00N 29°37' W 095°01'0 0.0
2017-Sep-16 23:30N 29°37' W 095°01'0 0.0
2017-Sep-16 23:00N 29°37' W 095°01'0 0.0
2017-Sep-16 22:30N 29°37' W 095°01'0 0.0
2017-Sep-16 22:00N 29°37' W 095°01'0 0.0
2017-Sep-16 21:30N 29°37' W 095°01'0 0.0
2017-Sep-16 21:00N 29°37' W 095°01'0 0.0
2017-Sep-16 20:30N 29°37' W 095°01'0 0.0
2017-Sep-16 20:00N 29°37' W 095°01'0 0.0
2017-Sep-16 19:30N 29°37' W 095°01'0 0.0
2017-Sep-16 19:00N 29°37' W 095°01'0 0.0
2017-Sep-16 18:30N 29°37' W 095°01'0 0.0
2017-Sep-16 18:00N 29°37' W 095°01'0 0.0
2017-Sep-16 17:30N 29°37' W 095°01'0 0.0
2017-Sep-16 17:00N 29°37' W 095°01'0 0.0
2017-Sep-16 16:30N 29°37' W 095°01'0 0.0
2017-Sep-16 16:00N 29°37' W 095°01'0 0.0
2017-Sep-16 15:30N 29°37' W 095°01'0 0.0
2017-Sep-16 15:00N 29°37' W 095°01'0 0.0
2017-Sep-16 14:30N 29°37' W 095°01'0 0.0
2017-Sep-16 14:00N 29°37' W 095°01'0 0.0
2017-Sep-16 13:30N 29°37' W 095°01'0 0.0
2017-Sep-16 13:00N 29°37' W 095°01'0 0.0
2017-Sep-16 12:30N 29°37' W 095°01'0 0.0
2017-Sep-16 12:00N 29°37' W 095°01'0 0.0
2017-Sep-16 11:30N 29°37' W 095°01'1 1.0
2017-Sep-16 11:00N 29°37' W 095°01'3 5.5
2017-Sep-16 10:30N 29°37' W 094°58'3 6.9
2017-Sep-16 10:00N 29°40' W 094°59'3 6.5
2017-Sep-16 09:30N 29°43' W 095°01'3 6.4
2017-Sep-16 08:59N 29°45' W 095°04'  

Dump ship's entire track history